VOZ947 YSSY-YBBN
Flight info
| Callsign | VOZ947 |
|---|---|
| Flight time | 1h 10m |
| Altitude | 35000 |
| Route | OLSEM1/34R OLSEM Y193 BANDA H252 BN |
| Aircraft | B738/M-SDE2E3FGHIRWXY/LB1 |
Departure
| Time | 2026-04-26 04:21 |
|---|---|
| Airport | Sydney Kingsford Smith International Airport (YSSY) |
Arrival
| Time | 2026-04-26 05:32 |
|---|---|
| Airport | Brisbane International Airport (YBBN) |
| Time | Latitude | Longitude | Altitude | Speed | Heading |
|---|---|---|---|---|---|
| 2026-04-26 03:57 | -33.93659 | 151.17881 | 29 ft | 0 kts | 90° |
| 2026-04-26 03:58 | -33.93626 | 151.17898 | 29 ft | 0 kts | 99° |
| 2026-04-26 04:05 | -33.93626 | 151.17897 | 29 ft | 0 kts | 99° |
| 2026-04-26 04:10 | -33.93622 | 151.17874 | 29 ft | 4 kts | 107° |
| 2026-04-26 04:10 | -33.93612 | 151.17845 | 29 ft | 4 kts | 126° |
| 2026-04-26 04:10 | -33.93593 | 151.17825 | 29 ft | 4 kts | 170° |
| 2026-04-26 04:10 | -33.93581 | 151.17825 | 29 ft | 1 kts | 190° |
| 2026-04-26 04:11 | -33.93579 | 151.17825 | 29 ft | 2 kts | 190° |
| 2026-04-26 04:13 | -33.93593 | 151.17823 | 29 ft | 7 kts | 190° |
| 2026-04-26 04:13 | -33.93675 | 151.17804 | 29 ft | 17 kts | 193° |
| 2026-04-26 04:13 | -33.93812 | 151.17765 | 29 ft | 23 kts | 186° |
| 2026-04-26 04:13 | -33.93984 | 151.17802 | 28 ft | 27 kts | 167° |
| 2026-04-26 04:14 | -33.94173 | 151.17851 | 29 ft | 27 kts | 170° |
| 2026-04-26 04:14 | -33.94346 | 151.17894 | 29 ft | 25 kts | 167° |
| 2026-04-26 04:14 | -33.94509 | 151.17884 | 29 ft | 23 kts | 184° |
| 2026-04-26 04:14 | -33.94665 | 151.17919 | 29 ft | 22 kts | 167° |
| 2026-04-26 04:15 | -33.94822 | 151.17960 | 29 ft | 24 kts | 167° |
| 2026-04-26 04:15 | -33.94988 | 151.18003 | 29 ft | 24 kts | 167° |
| 2026-04-26 04:15 | -33.95099 | 151.18105 | 29 ft | 23 kts | 81° |
| 2026-04-26 04:15 | -33.95068 | 151.18278 | 29 ft | 20 kts | 78° |
| 2026-04-26 04:16 | -33.95048 | 151.18391 | 29 ft | 9 kts | 78° |
| 2026-04-26 04:16 | -33.95044 | 151.18475 | 29 ft | 11 kts | 114° |
| 2026-04-26 04:16 | -33.95102 | 151.18530 | 29 ft | 11 kts | 143° |
| 2026-04-26 04:16 | -33.95161 | 151.18594 | 29 ft | 13 kts | 137° |
| 2026-04-26 04:17 | -33.95251 | 151.18684 | 29 ft | 20 kts | 149° |
| 2026-04-26 04:17 | -33.95407 | 151.18743 | 29 ft | 26 kts | 167° |
| 2026-04-26 04:17 | -33.95580 | 151.18789 | 29 ft | 25 kts | 168° |
| 2026-04-26 04:17 | -33.95742 | 151.18831 | 29 ft | 23 kts | 167° |
| 2026-04-26 04:18 | -33.95896 | 151.18870 | 29 ft | 22 kts | 168° |
| 2026-04-26 04:18 | -33.96046 | 151.18910 | 29 ft | 22 kts | 168° |
| 2026-04-26 04:18 | -33.96191 | 151.18947 | 29 ft | 21 kts | 168° |
| 2026-04-26 04:18 | -33.96333 | 151.18984 | 29 ft | 20 kts | 168° |
| 2026-04-26 04:19 | -33.96470 | 151.19018 | 29 ft | 20 kts | 168° |
| 2026-04-26 04:19 | -33.96615 | 151.19057 | 29 ft | 24 kts | 167° |
| 2026-04-26 04:19 | -33.96802 | 151.19064 | 29 ft | 30 kts | 179° |
| 2026-04-26 04:19 | -33.97001 | 151.19112 | 29 ft | 24 kts | 168° |
| 2026-04-26 04:20 | -33.97117 | 151.19167 | 29 ft | 12 kts | 115° |
| 2026-04-26 04:20 | -33.97111 | 151.19267 | 27 ft | 12 kts | 79° |
| 2026-04-26 04:20 | -33.97076 | 151.19368 | 28 ft | 14 kts | 21° |
| 2026-04-26 04:20 | -33.96932 | 151.19339 | 26 ft | 50 kts | 348° |
| 2026-04-26 04:21 | -33.96286 | 151.19171 | 28 ft | 137 kts | 348° |
| 2026-04-26 04:21 | -33.95144 | 151.18857 | 297 ft | 189 kts | 350° |
| 2026-04-26 04:21 | -33.93770 | 151.18619 | 1131 ft | 207 kts | 5° |
| 2026-04-26 04:21 | -33.92423 | 151.19258 | 2059 ft | 213 kts | 33° |
| 2026-04-26 04:22 | -33.91210 | 151.20219 | 3117 ft | 202 kts | 34° |
| 2026-04-26 04:22 | -33.90121 | 151.21180 | 4181 ft | 186 kts | 35° |
| 2026-04-26 04:22 | -33.89070 | 151.22133 | 4948 ft | 194 kts | 36° |
| 2026-04-26 04:22 | -33.87946 | 151.23149 | 5435 ft | 208 kts | 35° |
| 2026-04-26 04:23 | -33.86731 | 151.24227 | 5855 ft | 227 kts | 36° |
| 2026-04-26 04:23 | -33.85407 | 151.25431 | 6205 ft | 251 kts | 37° |
| 2026-04-26 04:23 | -33.84010 | 151.26830 | 6672 ft | 270 kts | 47° |
| 2026-04-26 04:23 | -33.82926 | 151.28722 | 7342 ft | 278 kts | 65° |
| 2026-04-26 04:24 | -33.82313 | 151.30893 | 8426 ft | 268 kts | 74° |
| 2026-04-26 04:24 | -33.81815 | 151.32988 | 9695 ft | 254 kts | 75° |
| 2026-04-26 04:24 | -33.81350 | 151.35028 | 10579 ft | 255 kts | 75° |
| 2026-04-26 04:24 | -33.80752 | 151.37122 | 10954 ft | 275 kts | 63° |
| 2026-04-26 04:25 | -33.79583 | 151.38931 | 11730 ft | 275 kts | 47° |
| 2026-04-26 04:25 | -33.78264 | 151.40666 | 12203 ft | 292 kts | 50° |
| 2026-04-26 04:25 | -33.76916 | 151.42585 | 12400 ft | 317 kts | 50° |
| 2026-04-26 04:25 | -33.75468 | 151.44706 | 12580 ft | 340 kts | 51° |
| 2026-04-26 04:26 | -33.73941 | 151.46966 | 13004 ft | 354 kts | 51° |
| 2026-04-26 04:26 | -33.72378 | 151.49284 | 13706 ft | 359 kts | 51° |
| 2026-04-26 04:26 | -33.70796 | 151.51629 | 14408 ft | 363 kts | 51° |
| 2026-04-26 04:26 | -33.69204 | 151.53988 | 15123 ft | 365 kts | 51° |
| 2026-04-26 04:27 | -33.67598 | 151.56364 | 15828 ft | 368 kts | 51° |
| 2026-04-26 04:27 | -33.65979 | 151.58756 | 16518 ft | 371 kts | 51° |
| 2026-04-26 04:27 | -33.64234 | 151.61041 | 17168 ft | 375 kts | 39° |
| 2026-04-26 04:27 | -33.62071 | 151.62807 | 17864 ft | 378 kts | 33° |
| 2026-04-26 04:28 | -33.59842 | 151.64500 | 18521 ft | 381 kts | 33° |
| 2026-04-26 04:28 | -33.57596 | 151.66223 | 19074 ft | 385 kts | 34° |
| 2026-04-26 04:28 | -33.55345 | 151.67979 | 19644 ft | 388 kts | 34° |
| 2026-04-26 04:28 | -33.53085 | 151.69762 | 20215 ft | 391 kts | 34° |
| 2026-04-26 04:29 | -33.50796 | 151.71548 | 20776 ft | 394 kts | 32° |
| 2026-04-26 04:29 | -33.48323 | 151.72997 | 21307 ft | 399 kts | 21° |
| 2026-04-26 04:29 | -33.45651 | 151.73931 | 21856 ft | 402 kts | 15° |
| 2026-04-26 04:29 | -33.42921 | 151.74735 | 22383 ft | 405 kts | 15° |
| 2026-04-26 04:30 | -33.40176 | 151.75564 | 22894 ft | 409 kts | 15° |
| 2026-04-26 04:30 | -33.37413 | 151.76425 | 23403 ft | 412 kts | 16° |
| 2026-04-26 04:30 | -33.34636 | 151.77311 | 23893 ft | 415 kts | 16° |
| 2026-04-26 04:30 | -33.31840 | 151.78214 | 24293 ft | 418 kts | 17° |
| 2026-04-26 04:31 | -33.29020 | 151.79129 | 24688 ft | 421 kts | 16° |
| 2026-04-26 04:31 | -33.26184 | 151.80049 | 25097 ft | 424 kts | 16° |
| 2026-04-26 04:31 | -33.23325 | 151.80974 | 25497 ft | 427 kts | 16° |
| 2026-04-26 04:31 | -33.20450 | 151.81904 | 25871 ft | 430 kts | 16° |
| 2026-04-26 04:32 | -33.17555 | 151.82838 | 26257 ft | 433 kts | 16° |
| 2026-04-26 04:32 | -33.14636 | 151.83778 | 26624 ft | 435 kts | 16° |
| 2026-04-26 04:32 | -33.11707 | 151.84721 | 26990 ft | 438 kts | 16° |
| 2026-04-26 04:32 | -33.08750 | 151.85671 | 27308 ft | 442 kts | 16° |
| 2026-04-26 04:33 | -33.05765 | 151.86630 | 27644 ft | 445 kts | 16° |
| 2026-04-26 04:33 | -33.02766 | 151.87593 | 27992 ft | 448 kts | 16° |
| 2026-04-26 04:33 | -32.99751 | 151.88560 | 28264 ft | 450 kts | 16° |
| 2026-04-26 04:34 | -32.93655 | 151.90513 | 28247 ft | 454 kts | 15° |
| 2026-04-26 04:34 | -32.87596 | 151.92451 | 28236 ft | 450 kts | 15° |
| 2026-04-26 04:34 | -32.84576 | 151.93415 | 28483 ft | 449 kts | 16° |
| 2026-04-26 04:35 | -32.81546 | 151.94384 | 28745 ft | 453 kts | 16° |
| 2026-04-26 04:35 | -32.78486 | 151.95362 | 28989 ft | 458 kts | 16° |
| 2026-04-26 04:35 | -32.75402 | 151.96346 | 29304 ft | 460 kts | 16° |
| 2026-04-26 04:35 | -32.72303 | 151.97334 | 29642 ft | 462 kts | 16° |
| 2026-04-26 04:36 | -32.69194 | 151.98325 | 29963 ft | 464 kts | 16° |
| 2026-04-26 04:36 | -32.66069 | 151.99320 | 30257 ft | 466 kts | 16° |
| 2026-04-26 04:36 | -32.62929 | 152.00318 | 30537 ft | 468 kts | 16° |
| 2026-04-26 04:36 | -32.59787 | 152.01317 | 30908 ft | 467 kts | 15° |
| 2026-04-26 04:37 | -32.56658 | 152.02310 | 31298 ft | 465 kts | 15° |
| 2026-04-26 04:37 | -32.53537 | 152.03300 | 31662 ft | 464 kts | 15° |
| 2026-04-26 04:37 | -32.50419 | 152.04289 | 31971 ft | 464 kts | 15° |
| 2026-04-26 04:37 | -32.47298 | 152.05279 | 32299 ft | 464 kts | 15° |
| 2026-04-26 04:38 | -32.44181 | 152.06266 | 32641 ft | 464 kts | 15° |
| 2026-04-26 04:38 | -32.41059 | 152.07254 | 32926 ft | 465 kts | 15° |
| 2026-04-26 04:38 | -32.37937 | 152.08241 | 33233 ft | 465 kts | 15° |
| 2026-04-26 04:38 | -32.34817 | 152.09227 | 33589 ft | 463 kts | 15° |
| 2026-04-26 04:39 | -32.31708 | 152.10209 | 33931 ft | 462 kts | 15° |
| 2026-04-26 04:39 | -32.28601 | 152.11189 | 34236 ft | 462 kts | 15° |
| 2026-04-26 04:39 | -32.25492 | 152.12170 | 34493 ft | 462 kts | 15° |
| 2026-04-26 04:39 | -32.22428 | 152.13135 | 34751 ft | 462 kts | 15° |
| 2026-04-26 04:40 | -32.19317 | 152.14115 | 34932 ft | 464 kts | 15° |
| 2026-04-26 04:40 | -32.16194 | 152.15098 | 35160 ft | 463 kts | 15° |
| 2026-04-26 04:40 | -32.13098 | 152.16071 | 35222 ft | 461 kts | 15° |
| 2026-04-26 04:41 | -32.06901 | 152.18018 | 35237 ft | 462 kts | 15° |
| 2026-04-26 04:41 | -32.00661 | 152.19976 | 35242 ft | 465 kts | 15° |
| 2026-04-26 04:42 | -31.94391 | 152.21940 | 35240 ft | 468 kts | 15° |
| 2026-04-26 04:42 | -31.88087 | 152.23912 | 35240 ft | 469 kts | 15° |
| 2026-04-26 04:43 | -31.81775 | 152.25883 | 35227 ft | 469 kts | 15° |
| 2026-04-26 04:43 | -31.75468 | 152.27850 | 35230 ft | 469 kts | 15° |
| 2026-04-26 04:44 | -31.69171 | 152.29812 | 35237 ft | 467 kts | 15° |
| 2026-04-26 04:44 | -31.62889 | 152.31766 | 35235 ft | 466 kts | 15° |
| 2026-04-26 04:45 | -31.56626 | 152.33711 | 35233 ft | 465 kts | 15° |
| 2026-04-26 04:45 | -31.50382 | 152.35648 | 35238 ft | 464 kts | 15° |
| 2026-04-26 04:46 | -31.44149 | 152.37579 | 35234 ft | 463 kts | 15° |
| 2026-04-26 04:46 | -31.37927 | 152.39503 | 35242 ft | 462 kts | 15° |
| 2026-04-26 04:47 | -31.31713 | 152.41423 | 35234 ft | 462 kts | 15° |
| 2026-04-26 04:47 | -31.25489 | 152.43343 | 35239 ft | 462 kts | 15° |
| 2026-04-26 04:48 | -31.16143 | 152.46221 | 35242 ft | 464 kts | 15° |
| 2026-04-26 04:48 | -31.09893 | 152.48142 | 35243 ft | 465 kts | 15° |
| 2026-04-26 04:49 | -31.04680 | 152.49744 | 35223 ft | 466 kts | 14° |
| 2026-04-26 04:49 | -30.98398 | 152.51671 | 35233 ft | 467 kts | 14° |
| 2026-04-26 04:50 | -30.92104 | 152.53604 | 35237 ft | 469 kts | 15° |
| 2026-04-26 04:50 | -30.85787 | 152.55532 | 35235 ft | 470 kts | 14° |
| 2026-04-26 04:51 | -30.79456 | 152.57466 | 35229 ft | 471 kts | 15° |
| 2026-04-26 04:51 | -30.73178 | 152.59659 | 35237 ft | 471 kts | 18° |
| 2026-04-26 04:52 | -30.66935 | 152.61999 | 35234 ft | 472 kts | 18° |
| 2026-04-26 04:52 | -30.60687 | 152.64311 | 35234 ft | 471 kts | 17° |
| 2026-04-26 04:53 | -30.54433 | 152.66589 | 35230 ft | 471 kts | 17° |
| 2026-04-26 04:53 | -30.48176 | 152.68852 | 35230 ft | 470 kts | 17° |
| 2026-04-26 04:54 | -30.41931 | 152.71108 | 35232 ft | 470 kts | 17° |
| 2026-04-26 04:54 | -30.35693 | 152.73360 | 35231 ft | 469 kts | 17° |
| 2026-04-26 04:55 | -30.29462 | 152.75607 | 35229 ft | 469 kts | 17° |
| 2026-04-26 04:55 | -30.23242 | 152.77847 | 35230 ft | 468 kts | 17° |
| 2026-04-26 04:56 | -30.17067 | 152.80068 | 35239 ft | 467 kts | 17° |
| 2026-04-26 04:56 | -30.10859 | 152.82298 | 35224 ft | 467 kts | 16° |
| 2026-04-26 04:57 | -30.04655 | 152.84525 | 35220 ft | 467 kts | 16° |
| 2026-04-26 04:57 | -29.98448 | 152.86748 | 35225 ft | 468 kts | 17° |
| 2026-04-26 04:58 | -29.92225 | 152.88975 | 35220 ft | 469 kts | 16° |
| 2026-04-26 04:58 | -29.85984 | 152.91195 | 35208 ft | 470 kts | 16° |
| 2026-04-26 04:59 | -29.79735 | 152.93408 | 35215 ft | 470 kts | 16° |
| 2026-04-26 04:59 | -29.73475 | 152.95623 | 35211 ft | 471 kts | 16° |
| 2026-04-26 05:00 | -29.67209 | 152.97839 | 35206 ft | 471 kts | 15° |
| 2026-04-26 05:00 | -29.60935 | 153.00056 | 35215 ft | 472 kts | 15° |
| 2026-04-26 05:01 | -29.54660 | 153.02269 | 35214 ft | 472 kts | 15° |
| 2026-04-26 05:01 | -29.48384 | 153.04481 | 35211 ft | 472 kts | 15° |
| 2026-04-26 05:02 | -29.42112 | 153.06688 | 35207 ft | 472 kts | 15° |
| 2026-04-26 05:02 | -29.35838 | 153.08893 | 35215 ft | 471 kts | 15° |
| 2026-04-26 05:03 | -29.29569 | 153.11094 | 35213 ft | 472 kts | 15° |
| 2026-04-26 05:03 | -29.23293 | 153.13301 | 35223 ft | 471 kts | 15° |
| 2026-04-26 05:04 | -29.17025 | 153.15509 | 35208 ft | 471 kts | 15° |
| 2026-04-26 05:04 | -29.10746 | 153.17718 | 34824 ft | 477 kts | 15° |
| 2026-04-26 05:05 | -29.07587 | 153.18828 | 34442 ft | 472 kts | 15° |
| 2026-04-26 05:05 | -29.04459 | 153.19928 | 33958 ft | 469 kts | 15° |
| 2026-04-26 05:05 | -29.01355 | 153.21018 | 33475 ft | 465 kts | 15° |
| 2026-04-26 05:05 | -28.98272 | 153.22100 | 33017 ft | 461 kts | 15° |
| 2026-04-26 05:06 | -28.95217 | 153.23172 | 32570 ft | 458 kts | 15° |
| 2026-04-26 05:06 | -28.92184 | 153.24234 | 32137 ft | 454 kts | 15° |
| 2026-04-26 05:06 | -28.89175 | 153.25288 | 31706 ft | 451 kts | 15° |
| 2026-04-26 05:06 | -28.86223 | 153.26321 | 31285 ft | 448 kts | 15° |
| 2026-04-26 05:07 | -28.83253 | 153.27359 | 30865 ft | 446 kts | 15° |
| 2026-04-26 05:07 | -28.80293 | 153.28394 | 30448 ft | 443 kts | 15° |
| 2026-04-26 05:07 | -28.77351 | 153.29421 | 29963 ft | 441 kts | 15° |
| 2026-04-26 05:07 | -28.74382 | 153.30457 | 29488 ft | 438 kts | 16° |
| 2026-04-26 05:08 | -28.71521 | 153.31455 | 29028 ft | 435 kts | 15° |
| 2026-04-26 05:08 | -28.68603 | 153.32473 | 28603 ft | 431 kts | 15° |
| 2026-04-26 05:08 | -28.65791 | 153.33453 | 28170 ft | 427 kts | 16° |
| 2026-04-26 05:08 | -28.62957 | 153.34440 | 27747 ft | 424 kts | 16° |
| 2026-04-26 05:09 | -28.60149 | 153.35417 | 27320 ft | 421 kts | 16° |
| 2026-04-26 05:09 | -28.57356 | 153.36389 | 26900 ft | 418 kts | 16° |
| 2026-04-26 05:09 | -28.54585 | 153.37352 | 26479 ft | 415 kts | 16° |
| 2026-04-26 05:09 | -28.51838 | 153.38307 | 26067 ft | 412 kts | 16° |
| 2026-04-26 05:10 | -28.49107 | 153.39258 | 25660 ft | 409 kts | 17° |
| 2026-04-26 05:10 | -28.46392 | 153.40204 | 25219 ft | 407 kts | 16° |
| 2026-04-26 05:10 | -28.43685 | 153.41142 | 24822 ft | 405 kts | 16° |
| 2026-04-26 05:10 | -28.40991 | 153.42073 | 24389 ft | 404 kts | 17° |
| 2026-04-26 05:11 | -28.38311 | 153.43000 | 23983 ft | 402 kts | 17° |
| 2026-04-26 05:11 | -28.35641 | 153.43923 | 23527 ft | 401 kts | 17° |
| 2026-04-26 05:11 | -28.32982 | 153.44841 | 23067 ft | 397 kts | 17° |
| 2026-04-26 05:11 | -28.30348 | 153.45754 | 22633 ft | 394 kts | 18° |
| 2026-04-26 05:12 | -28.27741 | 153.46658 | 22226 ft | 390 kts | 18° |
| 2026-04-26 05:12 | -28.25159 | 153.47551 | 21829 ft | 387 kts | 18° |
| 2026-04-26 05:12 | -28.22595 | 153.48439 | 21421 ft | 383 kts | 18° |
| 2026-04-26 05:12 | -28.20054 | 153.49318 | 21021 ft | 380 kts | 18° |
| 2026-04-26 05:13 | -28.17514 | 153.50120 | 20607 ft | 378 kts | 10° |
| 2026-04-26 05:13 | -28.14898 | 153.50103 | 20219 ft | 376 kts | 351° |
| 2026-04-26 05:13 | -28.12334 | 153.49587 | 19875 ft | 373 kts | 350° |
| 2026-04-26 05:13 | -28.09791 | 153.49026 | 19471 ft | 371 kts | 349° |
| 2026-04-26 05:14 | -28.07262 | 153.48465 | 19084 ft | 369 kts | 350° |
| 2026-04-26 05:14 | -28.04745 | 153.47916 | 18693 ft | 367 kts | 350° |
| 2026-04-26 05:14 | -28.02238 | 153.47383 | 18262 ft | 367 kts | 351° |
| 2026-04-26 05:14 | -27.99737 | 153.46859 | 17835 ft | 364 kts | 351° |
| 2026-04-26 05:15 | -27.97258 | 153.46341 | 17437 ft | 361 kts | 351° |
| 2026-04-26 05:15 | -27.94799 | 153.45830 | 17052 ft | 358 kts | 352° |
| 2026-04-26 05:15 | -27.92357 | 153.45325 | 16667 ft | 355 kts | 351° |
| 2026-04-26 05:15 | -27.89940 | 153.44827 | 16290 ft | 352 kts | 352° |
| 2026-04-26 05:16 | -27.87540 | 153.44332 | 15923 ft | 349 kts | 352° |
| 2026-04-26 05:16 | -27.85185 | 153.43847 | 15552 ft | 347 kts | 352° |
| 2026-04-26 05:16 | -27.82788 | 153.43351 | 15188 ft | 344 kts | 352° |
| 2026-04-26 05:16 | -27.80469 | 153.42867 | 14832 ft | 343 kts | 351° |
| 2026-04-26 05:17 | -27.78101 | 153.42378 | 14454 ft | 341 kts | 352° |
| 2026-04-26 05:17 | -27.75835 | 153.41913 | 14104 ft | 339 kts | 352° |
| 2026-04-26 05:17 | -27.73525 | 153.41438 | 13713 ft | 337 kts | 351° |
| 2026-04-26 05:17 | -27.71224 | 153.40966 | 13324 ft | 335 kts | 351° |
| 2026-04-26 05:18 | -27.68939 | 153.40494 | 12943 ft | 333 kts | 352° |
| 2026-04-26 05:18 | -27.66671 | 153.40027 | 12574 ft | 330 kts | 353° |
| 2026-04-26 05:18 | -27.64424 | 153.39567 | 12219 ft | 327 kts | 351° |
| 2026-04-26 05:18 | -27.62182 | 153.39355 | 11940 ft | 320 kts | 4° |
| 2026-04-26 05:19 | -27.59966 | 153.39444 | 11716 ft | 318 kts | 6° |
| 2026-04-26 05:19 | -27.57759 | 153.39600 | 11475 ft | 318 kts | 6° |
| 2026-04-26 05:19 | -27.55551 | 153.39753 | 11230 ft | 319 kts | 6° |
| 2026-04-26 05:19 | -27.53335 | 153.39890 | 10988 ft | 319 kts | 6° |
| 2026-04-26 05:20 | -27.51125 | 153.40011 | 10742 ft | 316 kts | 6° |
| 2026-04-26 05:20 | -27.48943 | 153.40121 | 10493 ft | 312 kts | 5° |
| 2026-04-26 05:20 | -27.46781 | 153.40225 | 10158 ft | 310 kts | 6° |
| 2026-04-26 05:20 | -27.44638 | 153.40325 | 9956 ft | 304 kts | 6° |
| 2026-04-26 05:21 | -27.42575 | 153.40418 | 9928 ft | 291 kts | 6° |
| 2026-04-26 05:21 | -27.40527 | 153.40513 | 9478 ft | 295 kts | 5° |
| 2026-04-26 05:21 | -27.38482 | 153.40608 | 9168 ft | 293 kts | 6° |
| 2026-04-26 05:21 | -27.36460 | 153.40700 | 8927 ft | 289 kts | 6° |
| 2026-04-26 05:22 | -27.34456 | 153.40791 | 8652 ft | 287 kts | 6° |
| 2026-04-26 05:22 | -27.32469 | 153.40881 | 8391 ft | 284 kts | 6° |
| 2026-04-26 05:22 | -27.30504 | 153.40971 | 8143 ft | 282 kts | 6° |
| 2026-04-26 05:22 | -27.28552 | 153.41060 | 7892 ft | 279 kts | 6° |
| 2026-04-26 05:23 | -27.26618 | 153.41148 | 7642 ft | 277 kts | 6° |
| 2026-04-26 05:23 | -27.24696 | 153.41236 | 7389 ft | 276 kts | 6° |
| 2026-04-26 05:23 | -27.22787 | 153.41323 | 7148 ft | 274 kts | 6° |
| 2026-04-26 05:23 | -27.20887 | 153.41403 | 6904 ft | 273 kts | 4° |
| 2026-04-26 05:24 | -27.19030 | 153.40920 | 6631 ft | 281 kts | 332° |
| 2026-04-26 05:24 | -27.17465 | 153.39611 | 6399 ft | 280 kts | 321° |
| 2026-04-26 05:24 | -27.15983 | 153.38195 | 6124 ft | 279 kts | 321° |
| 2026-04-26 05:24 | -27.14515 | 153.36778 | 5865 ft | 277 kts | 319° |
| 2026-04-26 05:25 | -27.13412 | 153.35029 | 5585 ft | 277 kts | 288° |
| 2026-04-26 05:25 | -27.13213 | 153.32927 | 5354 ft | 270 kts | 259° |
| 2026-04-26 05:25 | -27.13748 | 153.30951 | 5124 ft | 262 kts | 241° |
| 2026-04-26 05:25 | -27.14524 | 153.29145 | 4903 ft | 259 kts | 240° |
| 2026-04-26 05:26 | -27.15313 | 153.27330 | 4655 ft | 258 kts | 240° |
| 2026-04-26 05:26 | -27.16236 | 153.25688 | 4522 ft | 239 kts | 217° |
| 2026-04-26 05:26 | -27.17607 | 153.24807 | 4284 ft | 222 kts | 197° |
| 2026-04-26 05:26 | -27.18992 | 153.24072 | 4000 ft | 217 kts | 201° |
| 2026-04-26 05:27 | -27.20304 | 153.23308 | 3708 ft | 207 kts | 201° |
| 2026-04-26 05:27 | -27.21543 | 153.22587 | 3440 ft | 194 kts | 201° |
| 2026-04-26 05:27 | -27.22717 | 153.21910 | 3183 ft | 187 kts | 200° |
| 2026-04-26 05:27 | -27.23857 | 153.21255 | 2949 ft | 181 kts | 200° |
| 2026-04-26 05:28 | -27.24967 | 153.20617 | 2713 ft | 177 kts | 200° |
| 2026-04-26 05:28 | -27.26052 | 153.19993 | 2476 ft | 173 kts | 200° |
| 2026-04-26 05:28 | -27.27112 | 153.19383 | 2266 ft | 166 kts | 199° |
| 2026-04-26 05:28 | -27.28086 | 153.18821 | 2065 ft | 148 kts | 198° |
| 2026-04-26 05:29 | -27.28957 | 153.18319 | 1850 ft | 137 kts | 197° |
| 2026-04-26 05:29 | -27.29804 | 153.17836 | 1665 ft | 136 kts | 198° |
| 2026-04-26 05:29 | -27.30637 | 153.17358 | 1491 ft | 133 kts | 199° |
| 2026-04-26 05:29 | -27.31460 | 153.16885 | 1321 ft | 134 kts | 199° |
| 2026-04-26 05:30 | -27.32285 | 153.16410 | 1130 ft | 132 kts | 199° |
| 2026-04-26 05:30 | -27.33102 | 153.15941 | 953 ft | 135 kts | 200° |
| 2026-04-26 05:30 | -27.33780 | 153.15298 | 917 ft | 132 kts | 246° |
| 2026-04-26 05:30 | -27.34412 | 153.14651 | 809 ft | 128 kts | 180° |
| 2026-04-26 05:31 | -27.35288 | 153.14514 | 660 ft | 131 kts | 186° |
| 2026-04-26 05:31 | -27.36167 | 153.14181 | 401 ft | 141 kts | 204° |
| 2026-04-26 05:31 | -27.37063 | 153.13655 | 167 ft | 144 kts | 201° |
| 2026-04-26 05:31 | -27.37927 | 153.13165 | 23 ft | 131 kts | 203° |
| 2026-04-26 05:32 | -27.38626 | 153.12770 | 21 ft | 91 kts | 206° |
| 2026-04-26 05:32 | -27.39050 | 153.12526 | 18 ft | 44 kts | 208° |
| 2026-04-26 05:32 | -27.39308 | 153.12378 | 20 ft | 39 kts | 207° |
| 2026-04-26 05:32 | -27.39539 | 153.12245 | 21 ft | 36 kts | 212° |
| 2026-04-26 05:33 | -27.39560 | 153.12075 | 21 ft | 20 kts | 297° |
| 2026-04-26 05:33 | -27.39489 | 153.11942 | 21 ft | 20 kts | 330° |
| 2026-04-26 05:33 | -27.39363 | 153.11981 | 22 ft | 19 kts | 27° |
| 2026-04-26 05:33 | -27.39247 | 153.12048 | 21 ft | 19 kts | 27° |
| 2026-04-26 05:34 | -27.39134 | 153.12113 | 22 ft | 18 kts | 26° |
| 2026-04-26 05:34 | -27.39025 | 153.12175 | 20 ft | 17 kts | 27° |
| 2026-04-26 05:34 | -27.38915 | 153.12211 | 20 ft | 17 kts | 337° |
| 2026-04-26 05:34 | -27.38875 | 153.12101 | 20 ft | 16 kts | 272° |
| 2026-04-26 05:35 | -27.38852 | 153.12027 | 20 ft | 2 kts | 294° |
| 2026-04-26 05:35 | -27.38849 | 153.12018 | 20 ft | 2 kts | 294° |
| 2026-04-26 05:35 | -27.38842 | 153.12000 | 20 ft | 0 kts | 294° |